Terminal Aerodrome Forecast
Issued by NWS Mobile, AL

Home | Current Version | Previous Version | Text Only | Print | Product List | Glossary On
Versions: 1 2 3 4 5 6 7 8 9 10 11 12 13 14 15 16 17 18 19 20 21 22 23 24 25 26 27 28
000
FTUS44 KMOB 182320
TAFPNS
TAF
KPNS 182320Z 1900/1924 14016KT P6SM VCSH BKN008 OVC017
      WS020/19050KT
      TEMPO 1904/1907 VRB25G45KT 3SM TSRA BKN010CB
     FM190900 27015G23KT 5SM BR VCSH OVC010
     FM191500 30015G25KT P6SM VCSH OVC015
     FM192100 30028G36KT P6SM BKN025=

USA.gov is the U.S. government's official web portal to all federal, state and local government web resources and services.